Terminal Aerodrome Forecast
Issued by NWS

Home | Current Version | Previous Version | Text Only | Print | Product List | Glossary On
Versions: 1 2 3 4 5 6 7 8 9 10 11 12 13
392
FTUS45 KTFX 271730
TAFLWT
TAF
KLWT 271730Z 2718/2818 08006KT P6SM BKN040
      TEMPO 2718/2721 25012G20KT 3SM -SHRA SCT020 OVC030
     FM272100 VRB12G20KT 3SM -SHRA SCT010 BKN040
      TEMPO 2721/2801 VRB12G25KT 3SM -TSRA SCT010 OVC030CB
     FM280100 28010KT 3SM -RA SCT010 OVC030
     FM280900 28010KT P6SM FEW010 SCT030=

USA.gov is the U.S. government's official web portal to all federal, state and local government web resources and services.